createdAt,value
2019-03-23T00:00:49.655Z,99.90
2019-03-23T00:03:19.563Z,99.90
2019-03-23T00:05:49.957Z,99.90
2019-03-23T00:08:19.822Z,99.90
2019-03-23T00:10:49.603Z,99.90
2019-03-23T00:13:19.514Z,99.90
2019-03-23T00:15:49.300Z,99.90
2019-03-23T00:18:19.161Z,99.90
2019-03-23T00:20:49.010Z,99.90
2019-03-23T00:23:18.776Z,99.90
2019-03-23T00:25:48.639Z,99.90
2019-03-23T00:28:18.511Z,99.90
2019-03-23T00:30:48.288Z,99.90
2019-03-23T00:33:18.555Z,99.90
2019-03-23T00:35:48.389Z,99.90
2019-03-23T00:38:18.278Z,99.90
2019-03-23T00:40:48.666Z,99.90
2019-03-23T00:43:18.497Z,99.90
2019-03-23T00:45:48.311Z,99.90
2019-03-23T00:48:18.092Z,99.90
2019-03-23T00:50:47.926Z,99.90
2019-03-23T00:53:17.794Z,99.90
2019-03-23T00:55:47.643Z,99.90
2019-03-23T00:58:17.483Z,99.90
2019-03-23T01:00:47.636Z,99.90
2019-03-23T01:03:17.403Z,99.90
2019-03-23T01:05:47.282Z,99.90
2019-03-23T01:08:17.091Z,99.90
2019-03-23T01:10:46.958Z,99.90
2019-03-23T01:13:16.775Z,99.90
2019-03-23T01:15:48.171Z,99.90
2019-03-23T01:18:18.186Z,99.90
2019-03-23T01:20:49.967Z,99.90
2019-03-23T01:23:19.636Z,99.90
2019-03-23T01:25:49.428Z,99.90
2019-03-23T01:28:19.252Z,99.90
2019-03-23T01:30:49.118Z,99.90
2019-03-23T01:33:18.954Z,99.90
2019-03-23T01:35:48.830Z,99.90
2019-03-23T01:38:18.717Z,99.90
2019-03-23T01:40:48.511Z,99.90
2019-03-23T01:43:18.410Z,99.90
2019-03-23T01:45:48.209Z,99.90
2019-03-23T01:48:18.047Z,99.90
2019-03-23T01:50:47.845Z,99.90
2019-03-23T01:53:17.619Z,99.90
2019-03-23T01:55:47.382Z,99.90
2019-03-23T01:58:17.225Z,99.90
2019-03-23T02:00:47.257Z,99.90
2019-03-23T02:03:17.564Z,99.90
2019-03-23T02:05:47.423Z,99.90
2019-03-23T02:08:17.216Z,99.90
2019-03-23T02:10:47.113Z,99.90
2019-03-23T02:13:17.020Z,99.90
2019-03-23T02:15:49.173Z,99.90
2019-03-23T02:18:19.037Z,99.90
2019-03-23T02:20:49.038Z,99.90
2019-03-23T02:23:18.844Z,99.90
2019-03-23T02:25:49.384Z,99.90
2019-03-23T02:28:19.605Z,99.90
2019-03-23T02:30:49.361Z,99.90
2019-03-23T02:33:19.189Z,99.90
2019-03-23T02:35:49.064Z,99.90
2019-03-23T02:38:19.815Z,99.90
2019-03-23T02:40:49.651Z,99.90
2019-03-23T02:43:19.406Z,99.90
2019-03-23T02:45:49.290Z,99.90
2019-03-23T02:48:19.070Z,99.90
2019-03-23T02:50:48.882Z,99.90
2019-03-23T02:53:18.651Z,99.90
2019-03-23T02:55:48.422Z,99.90
2019-03-23T02:58:18.243Z,99.90
2019-03-23T03:00:48.087Z,99.90
2019-03-23T03:03:17.952Z,99.90
2019-03-23T03:05:47.729Z,99.90
2019-03-23T03:08:17.513Z,99.90
2019-03-23T03:10:47.354Z,99.90
2019-03-23T03:13:17.644Z,99.90
2019-03-23T03:15:47.510Z,99.90
2019-03-23T03:18:17.365Z,99.90
2019-03-23T03:20:47.249Z,99.90
2019-03-23T03:23:17.009Z,99.90
2019-03-23T03:25:46.746Z,99.90
2019-03-23T03:28:16.628Z,99.90
2019-03-23T03:30:47.055Z,99.90
2019-03-23T03:33:16.913Z,99.90
2019-03-23T03:35:46.714Z,99.90
2019-03-23T03:38:16.550Z,99.90
2019-03-23T03:40:46.395Z,99.90
2019-03-23T03:43:16.182Z,99.90
2019-03-23T03:45:46.451Z,99.90
2019-03-23T03:48:16.232Z,99.90
2019-03-23T03:50:46.118Z,99.90
2019-03-23T03:53:15.955Z,99.90
2019-03-23T03:55:45.742Z,99.90
2019-03-23T03:58:15.622Z,99.90
2019-03-23T04:00:45.479Z,99.90
2019-03-23T04:03:15.331Z,99.90
2019-03-23T04:05:45.131Z,99.90
2019-03-23T04:08:15.000Z,99.90
2019-03-23T04:10:44.791Z,99.90
2019-03-23T04:13:14.587Z,99.90
2019-03-23T04:15:44.423Z,99.90
2019-03-23T04:18:14.221Z,99.90
2019-03-23T04:20:44.037Z,99.90
2019-03-23T04:23:13.875Z,99.90
2019-03-23T04:25:43.636Z,99.90
2019-03-23T04:28:13.553Z,99.90
2019-03-23T04:30:43.350Z,99.90
2019-03-23T04:33:13.218Z,99.90
2019-03-23T04:35:43.070Z,99.90
2019-03-23T04:38:22.295Z,99.90
2019-03-23T04:40:44.458Z,99.90
2019-03-23T04:43:14.352Z,99.90
2019-03-23T04:45:44.235Z,99.90
2019-03-23T04:48:14.109Z,99.90
2019-03-23T04:50:43.972Z,99.90
2019-03-23T04:53:13.786Z,99.90
2019-03-23T04:55:43.587Z,99.90
2019-03-23T04:58:13.526Z,99.90
2019-03-23T05:00:43.954Z,99.90
2019-03-23T05:03:13.747Z,99.90
2019-03-23T05:05:43.518Z,99.90
2019-03-23T05:08:13.310Z,99.90
2019-03-23T05:10:43.162Z,99.90
2019-03-23T05:13:13.330Z,99.90
2019-03-23T05:15:43.448Z,99.90
2019-03-23T05:18:13.661Z,99.90
2019-03-23T05:20:43.516Z,99.90
2019-03-23T05:23:13.370Z,99.90
2019-03-23T05:25:43.269Z,99.90
2019-03-23T05:28:13.164Z,99.90
2019-03-23T05:30:43.001Z,99.90
2019-03-23T05:33:13.221Z,99.90
2019-03-23T05:35:43.355Z,99.90
2019-03-23T05:38:13.120Z,99.90
2019-03-23T05:40:42.900Z,99.90
2019-03-23T05:43:12.702Z,99.90
2019-03-23T05:45:42.552Z,99.90
2019-03-23T05:48:12.407Z,99.90
2019-03-23T05:50:42.258Z,99.90
2019-03-23T05:53:12.183Z,99.90
2019-03-23T05:55:42.565Z,99.90
2019-03-23T05:58:12.418Z,99.90
2019-03-23T06:00:42.302Z,99.90
2019-03-23T06:03:12.164Z,99.90
2019-03-23T06:05:41.946Z,99.90
2019-03-23T06:08:11.866Z,99.90
2019-03-23T06:10:41.657Z,99.90
2019-03-23T06:13:11.414Z,99.90
2019-03-23T06:15:41.294Z,99.90
2019-03-23T06:18:11.503Z,99.90
2019-03-23T06:20:41.378Z,99.90
2019-03-23T06:23:11.167Z,99.90
2019-03-23T06:25:40.998Z,99.90
2019-03-23T06:28:10.912Z,99.90
2019-03-23T06:30:42.139Z,99.70
2019-03-23T06:33:11.935Z,99.70
2019-03-23T06:35:41.758Z,99.70
2019-03-23T06:38:11.605Z,99.20
2019-03-23T06:40:41.475Z,98.90
2019-03-23T06:43:11.298Z,98.40
2019-03-23T06:45:41.087Z,97.70
2019-03-23T06:48:10.890Z,97.30
2019-03-23T06:50:40.742Z,97.30
2019-03-23T06:53:10.634Z,96.80
2019-03-23T06:55:40.710Z,96.40
2019-03-23T06:58:10.557Z,96.20
2019-03-23T07:00:40.415Z,95.30
2019-03-23T07:03:10.301Z,94.70
2019-03-23T07:05:40.114Z,94.50
2019-03-23T07:08:09.954Z,94.20
2019-03-23T07:10:39.835Z,93.50
2019-03-23T07:13:09.633Z,93.30
2019-03-23T07:15:40.067Z,92.60
2019-03-23T07:18:09.882Z,92.60
2019-03-23T07:20:39.727Z,91.10
2019-03-23T07:23:09.501Z,90.50
2019-03-23T07:25:39.379Z,90.50
2019-03-23T07:28:09.177Z,89.40
2019-03-23T07:30:39.051Z,87.80
2019-03-23T07:33:08.958Z,86.70
2019-03-23T07:35:38.798Z,86.90
2019-03-23T07:38:08.655Z,86.40
2019-03-23T07:40:39.209Z,84.70
2019-03-23T07:43:09.063Z,85.40
2019-03-23T07:45:38.911Z,85.80
2019-03-23T07:48:08.702Z,83.60
2019-03-23T07:50:38.543Z,82.40
2019-03-23T07:53:08.877Z,84.30
2019-03-23T07:55:38.650Z,84.10
2019-03-23T07:58:08.504Z,83.20
2019-03-23T08:00:40.789Z,82.40
2019-03-23T08:03:09.820Z,80.80
2019-03-23T08:05:39.676Z,78.60
2019-03-23T08:08:09.523Z,78.90
2019-03-23T08:10:39.318Z,78.70
2019-03-23T08:13:09.123Z,79.20
2019-03-23T08:15:38.958Z,79.90
2019-03-23T08:18:08.869Z,76.10
2019-03-23T08:20:38.650Z,76.60
2019-03-23T08:23:08.452Z,76.80
2019-03-23T08:25:38.997Z,75.20
2019-03-23T08:28:08.814Z,74.90
2019-03-23T08:30:38.696Z,74.60
2019-03-23T08:33:08.474Z,76.10
2019-03-23T08:35:38.317Z,77.60
2019-03-23T08:38:08.506Z,74.40
2019-03-23T08:40:38.298Z,75.50
2019-03-23T08:43:08.160Z,74.70
2019-03-23T08:45:38.021Z,72.80
2019-03-23T08:48:07.810Z,72.60
2019-03-23T08:50:37.688Z,71.80
2019-03-23T08:53:07.469Z,72.80
2019-03-23T08:55:37.310Z,73.80
2019-03-23T08:58:07.207Z,72.80
2019-03-23T09:00:36.981Z,72.40
2019-03-23T09:03:07.259Z,71.40
2019-03-23T09:05:37.133Z,71.60
2019-03-23T09:08:06.935Z,71.40
2019-03-23T09:10:36.817Z,71.10
2019-03-23T09:13:06.693Z,70.00
2019-03-23T09:15:36.950Z,63.30
2019-03-23T09:18:07.691Z,63.90
2019-03-23T09:20:37.596Z,66.00
2019-03-23T09:23:07.469Z,64.80
2019-03-23T09:25:37.416Z,62.30
2019-03-23T09:28:07.278Z,66.70
2019-03-23T09:30:37.174Z,65.20
2019-03-23T09:33:07.503Z,63.30
2019-03-23T09:35:39.440Z,65.70
2019-03-23T09:38:08.923Z,66.40
2019-03-23T09:40:38.735Z,65.10
2019-03-23T09:43:08.532Z,65.80
2019-03-23T09:45:38.410Z,67.20
2019-03-23T09:48:08.262Z,63.00
2019-03-23T09:50:38.339Z,61.60
2019-03-23T09:53:08.115Z,60.70
2019-03-23T09:55:37.947Z,63.40
2019-03-23T09:58:07.737Z,62.60
2019-03-23T10:00:37.441Z,62.30
2019-03-23T10:03:07.227Z,65.60
2019-03-23T10:05:37.128Z,64.70
2019-03-23T10:08:06.980Z,61.10
2019-03-23T10:10:36.859Z,60.40
2019-03-23T10:13:06.650Z,61.50
2019-03-23T10:15:36.521Z,62.60
2019-03-23T10:18:06.298Z,66.10
2019-03-23T10:20:36.148Z,64.20
2019-03-23T10:23:05.923Z,57.90
2019-03-23T10:25:35.826Z,61.30
2019-03-23T10:28:06.470Z,64.20
2019-03-23T10:30:36.318Z,61.20
2019-03-23T10:33:06.107Z,58.80
2019-03-23T10:35:36.435Z,59.70
2019-03-23T10:38:06.354Z,55.20
2019-03-23T10:40:36.199Z,55.60
2019-03-23T10:43:06.013Z,55.00
2019-03-23T10:45:43.815Z,55.80
2019-03-23T10:48:07.414Z,57.00
2019-03-23T10:50:37.284Z,59.00
2019-03-23T10:53:07.073Z,57.80
2019-03-23T10:55:36.933Z,56.20
2019-03-23T10:58:06.787Z,54.60
2019-03-23T11:00:36.570Z,56.20
2019-03-23T11:03:06.544Z,54.80
2019-03-23T11:05:37.082Z,57.10
2019-03-23T11:08:06.946Z,53.50
2019-03-23T11:10:41.756Z,53.20
2019-03-23T11:13:08.236Z,50.30
2019-03-23T11:15:38.234Z,50.60
2019-03-23T11:18:08.537Z,49.00
2019-03-23T11:20:38.226Z,47.90
2019-03-23T11:23:08.082Z,51.10
2019-03-23T11:25:37.899Z,51.40
2019-03-23T11:28:07.664Z,51.40
2019-03-23T11:30:37.505Z,48.00
2019-03-23T11:33:07.306Z,52.10
2019-03-23T11:35:37.367Z,53.30
2019-03-23T11:38:07.234Z,51.20
2019-03-23T11:40:38.064Z,50.10
2019-03-23T11:43:08.513Z,50.90
2019-03-23T11:45:38.344Z,50.00
2019-03-23T11:48:08.119Z,47.70
2019-03-23T11:50:38.082Z,47.70
2019-03-23T11:53:07.970Z,47.60
2019-03-23T11:55:37.753Z,49.60
2019-03-23T11:58:07.888Z,45.90
2019-03-23T12:00:37.803Z,47.70
2019-03-23T12:03:07.587Z,48.40
2019-03-23T12:05:37.418Z,46.20
2019-03-23T12:08:07.209Z,45.70
2019-03-23T12:10:37.181Z,49.00
2019-03-23T12:13:07.174Z,46.80
2019-03-23T12:15:37.066Z,45.70
2019-03-23T12:18:06.968Z,45.30
2019-03-23T12:20:36.822Z,44.60
2019-03-23T12:23:06.681Z,45.90
2019-03-23T12:25:36.547Z,46.90
2019-03-23T12:28:06.763Z,46.20
2019-03-23T12:30:36.541Z,45.80
2019-03-23T12:33:06.389Z,44.60
2019-03-23T12:35:36.149Z,44.50
2019-03-23T12:38:06.761Z,46.60
2019-03-23T12:40:36.653Z,44.00
2019-03-23T12:43:09.427Z,42.80
2019-03-23T12:45:39.277Z,43.30
2019-03-23T12:48:09.131Z,43.40
2019-03-23T12:50:38.993Z,46.60
2019-03-23T12:53:08.759Z,43.70
2019-03-23T12:55:38.648Z,45.20
2019-03-23T12:58:08.918Z,40.80
2019-03-23T13:00:38.677Z,38.80
2019-03-23T13:03:08.574Z,38.10
2019-03-23T13:05:38.349Z,39.50
2019-03-23T13:08:08.248Z,37.70
2019-03-23T13:10:38.209Z,40.70
2019-03-23T13:13:08.142Z,37.50
2019-03-23T13:15:37.923Z,38.80
2019-03-23T13:18:07.803Z,39.50
2019-03-23T13:20:37.623Z,38.10
2019-03-23T13:23:07.490Z,36.40
2019-03-23T13:25:37.410Z,34.00
2019-03-23T13:28:07.181Z,32.70
2019-03-23T13:30:37.257Z,33.50
2019-03-23T13:33:07.118Z,32.70
2019-03-23T13:35:36.967Z,32.50
2019-03-23T13:38:06.758Z,33.80
2019-03-23T13:40:36.622Z,32.50
2019-03-23T13:43:07.553Z,35.20
2019-03-23T13:45:42.575Z,33.10
2019-03-23T13:48:08.866Z,33.50
2019-03-23T13:50:38.738Z,33.70
2019-03-23T13:53:08.971Z,34.30
2019-03-23T13:55:38.823Z,34.10
2019-03-23T13:58:12.726Z,32.40
2019-03-23T14:00:43.227Z,33.80
2019-03-23T14:03:13.066Z,31.80
2019-03-23T14:05:43.167Z,33.30
2019-03-23T14:08:13.038Z,32.20
2019-03-23T14:10:42.946Z,32.70
2019-03-23T14:13:13.240Z,32.90
2019-03-23T14:15:43.089Z,31.70
2019-03-23T14:18:12.835Z,32.00
2019-03-23T14:20:42.702Z,31.80
2019-03-23T14:23:12.526Z,30.80
2019-03-23T14:25:42.383Z,30.50
2019-03-23T14:28:12.257Z,30.40
2019-03-23T14:30:42.113Z,29.80
2019-03-23T14:33:11.967Z,29.60
2019-03-23T14:35:41.837Z,30.10
2019-03-23T14:38:11.690Z,29.80
2019-03-23T14:40:41.559Z,30.00
2019-03-23T14:43:11.471Z,30.20
2019-03-23T14:45:42.415Z,31.20
2019-03-23T14:48:12.245Z,30.80
2019-03-23T14:50:42.783Z,30.50
2019-03-23T14:53:12.730Z,30.50
2019-03-23T14:55:42.575Z,31.00
2019-03-23T14:58:12.355Z,30.80
2019-03-23T15:00:42.155Z,32.00
2019-03-23T15:03:11.934Z,32.90
2019-03-23T15:05:41.846Z,33.00
2019-03-23T15:08:11.652Z,33.50
2019-03-23T15:10:41.517Z,34.70
2019-03-23T15:13:11.366Z,34.80
2019-03-23T15:15:41.137Z,35.50
2019-03-23T15:18:10.881Z,35.70
2019-03-23T15:20:40.601Z,36.40
2019-03-23T15:23:10.368Z,36.70
2019-03-23T15:25:40.150Z,37.00
2019-03-23T15:28:10.345Z,38.40
2019-03-23T15:30:40.126Z,36.90
2019-03-23T15:33:10.010Z,39.00
2019-03-23T15:35:39.858Z,37.20
2019-03-23T15:38:09.618Z,38.00
2019-03-23T15:40:39.823Z,37.10
2019-03-23T15:43:09.613Z,36.60
2019-03-23T15:45:39.491Z,37.50
2019-03-23T15:48:09.281Z,37.40
2019-03-23T15:50:39.157Z,38.00
2019-03-23T15:53:08.964Z,39.40
2019-03-23T15:55:38.780Z,38.90
2019-03-23T15:58:08.569Z,39.40
2019-03-23T16:00:38.425Z,39.90
2019-03-23T16:03:08.327Z,39.40
2019-03-23T16:05:38.173Z,38.80
2019-03-23T16:08:08.039Z,38.90
2019-03-23T16:10:37.940Z,39.40
2019-03-23T16:13:07.754Z,40.00
2019-03-23T16:15:37.612Z,39.80
2019-03-23T16:18:07.410Z,41.40
2019-03-23T16:20:37.198Z,40.90
2019-03-23T16:23:07.802Z,42.10
2019-03-23T16:25:37.843Z,41.80
2019-03-23T16:28:07.703Z,43.40
2019-03-23T16:30:37.481Z,44.00
2019-03-23T16:33:07.278Z,44.60
2019-03-23T16:35:37.113Z,45.60
2019-03-23T16:38:06.951Z,45.90
2019-03-23T16:40:37.167Z,46.50
2019-03-23T16:43:07.327Z,46.80
2019-03-23T16:45:37.214Z,47.20
2019-03-23T16:48:07.007Z,48.30
2019-03-23T16:50:36.897Z,49.40
2019-03-23T16:53:06.729Z,50.40
2019-03-23T16:55:36.682Z,51.20
2019-03-23T16:58:15.772Z,52.10
2019-03-23T17:00:38.706Z,53.50
2019-03-23T17:03:08.589Z,54.00
2019-03-23T17:05:38.473Z,54.80
2019-03-23T17:08:09.479Z,55.20
2019-03-23T17:10:39.188Z,55.80
2019-03-23T17:13:09.113Z,56.50
2019-03-23T17:15:40.583Z,57.00
2019-03-23T17:18:10.459Z,57.90
2019-03-23T17:20:40.333Z,58.60
2019-03-23T17:23:10.555Z,59.30
2019-03-23T17:25:40.435Z,60.30
2019-03-23T17:28:10.336Z,61.10
2019-03-23T17:30:40.165Z,62.10
2019-03-23T17:33:09.963Z,62.70
2019-03-23T17:35:39.739Z,63.00
2019-03-23T17:38:09.530Z,64.50
2019-03-23T17:40:39.322Z,64.60
2019-03-23T17:43:09.191Z,65.20
2019-03-23T17:45:39.053Z,65.60
2019-03-23T17:48:09.738Z,66.90
2019-03-23T17:50:39.562Z,68.70
2019-03-23T17:53:09.361Z,69.70
2019-03-23T17:55:39.273Z,70.20
2019-03-23T17:58:09.150Z,71.70
2019-03-23T18:00:39.037Z,72.70
2019-03-23T18:03:08.882Z,72.90
2019-03-23T18:05:38.727Z,73.50
2019-03-23T18:08:08.606Z,74.10
2019-03-23T18:10:38.487Z,75.00
2019-03-23T18:13:16.199Z,75.80
2019-03-23T18:15:39.997Z,75.90
2019-03-23T18:18:09.887Z,76.40
2019-03-23T18:20:39.725Z,76.70
2019-03-23T18:23:09.586Z,77.10
2019-03-23T18:25:42.226Z,77.80
2019-03-23T18:28:12.036Z,78.00
2019-03-23T18:30:45.650Z,77.70
2019-03-23T18:33:15.496Z,78.20
2019-03-23T18:35:45.327Z,78.60
2019-03-23T18:38:15.187Z,78.60
2019-03-23T18:40:45.009Z,79.10
2019-03-23T18:43:14.845Z,78.90
2019-03-23T18:45:44.664Z,79.20
2019-03-23T18:48:14.452Z,79.60
2019-03-23T18:50:44.247Z,79.60
2019-03-23T18:53:14.073Z,79.90
2019-03-23T18:55:43.951Z,80.00
2019-03-23T18:58:13.853Z,80.80
2019-03-23T19:00:44.645Z,80.70
2019-03-23T19:03:14.491Z,80.60
2019-03-23T19:05:44.302Z,80.50
2019-03-23T19:08:14.166Z,80.80
2019-03-23T19:10:44.012Z,80.70
2019-03-23T19:13:13.845Z,80.50
2019-03-23T19:15:43.736Z,80.20
2019-03-23T19:18:13.941Z,80.20
2019-03-23T19:20:43.890Z,80.30
2019-03-23T19:23:13.742Z,80.30
2019-03-23T19:25:43.661Z,80.70
2019-03-23T19:28:13.530Z,81.20
2019-03-23T19:30:43.427Z,81.40
2019-03-23T19:33:13.207Z,81.50
2019-03-23T19:35:43.639Z,82.00
2019-03-23T19:38:13.657Z,82.00
2019-03-23T19:40:43.569Z,82.40
2019-03-23T19:43:13.627Z,82.60
2019-03-23T19:45:43.539Z,83.30
2019-03-23T19:48:13.428Z,83.30
2019-03-23T19:50:43.522Z,83.20
2019-03-23T19:53:13.313Z,83.20
2019-03-23T19:55:43.161Z,83.50
2019-03-23T19:58:14.683Z,83.80
2019-03-23T20:00:48.214Z,83.90
2019-03-23T20:03:19.277Z,83.80
2019-03-23T20:05:49.394Z,83.40
2019-03-23T20:08:19.223Z,83.90
2019-03-23T20:10:49.066Z,83.80
2019-03-23T20:13:18.935Z,83.80
2019-03-23T20:15:48.777Z,83.70
2019-03-23T20:18:18.967Z,83.80
2019-03-23T20:20:49.459Z,83.80
2019-03-23T20:23:19.239Z,84.10
2019-03-23T20:25:49.027Z,84.10
2019-03-23T20:28:18.844Z,84.60
2019-03-23T20:30:48.708Z,85.10
2019-03-23T20:33:19.557Z,85.40
2019-03-23T20:35:49.666Z,85.80
2019-03-23T20:38:19.453Z,85.60
2019-03-23T20:40:49.306Z,85.90
2019-03-23T20:43:19.412Z,85.80
2019-03-23T20:45:49.255Z,86.30
2019-03-23T20:48:19.799Z,87.10
2019-03-23T20:50:49.697Z,86.90
2019-03-23T20:53:20.511Z,87.10
2019-03-23T20:55:50.392Z,87.10
2019-03-23T20:58:20.243Z,87.80
2019-03-23T21:00:50.159Z,88.10
2019-03-23T21:03:20.085Z,88.30
2019-03-23T21:05:50.557Z,88.20
2019-03-23T21:08:20.346Z,88.10
2019-03-23T21:10:50.151Z,88.40
2019-03-23T21:13:20.295Z,88.10
2019-03-23T21:15:50.155Z,88.30
2019-03-23T21:18:20.052Z,88.60
2019-03-23T21:20:49.893Z,88.90
2019-03-23T21:23:19.691Z,89.30
2019-03-23T21:25:49.520Z,89.60
2019-03-23T21:28:19.376Z,89.90
2019-03-23T21:30:49.178Z,90.30
2019-03-23T21:33:18.970Z,90.10
2019-03-23T21:35:49.066Z,90.20
2019-03-23T21:38:18.883Z,90.10
2019-03-23T21:40:48.659Z,90.30
2019-03-23T21:43:18.517Z,90.50
2019-03-23T21:45:48.361Z,90.60
2019-03-23T21:48:18.139Z,90.70
2019-03-23T21:50:47.987Z,90.90
2019-03-23T21:53:17.777Z,90.90
2019-03-23T21:55:47.758Z,90.90
2019-03-23T21:58:17.521Z,91.10
2019-03-23T22:00:47.378Z,91.10
2019-03-23T22:03:19.030Z,91.10
2019-03-23T22:05:48.893Z,91.20
2019-03-23T22:08:18.734Z,91.10
2019-03-23T22:10:48.566Z,90.90
2019-03-23T22:13:18.424Z,90.90
2019-03-23T22:15:48.232Z,91.00
2019-03-23T22:18:18.047Z,91.00
2019-03-23T22:20:47.856Z,90.90
2019-03-23T22:23:17.642Z,90.90
2019-03-23T22:25:47.523Z,91.10
2019-03-23T22:28:17.410Z,91.30
2019-03-23T22:30:47.765Z,91.40
2019-03-23T22:33:17.592Z,91.30
2019-03-23T22:35:47.386Z,91.50
2019-03-23T22:38:17.174Z,91.60
2019-03-23T22:40:47.072Z,91.70
2019-03-23T22:43:16.927Z,91.70
2019-03-23T22:45:46.849Z,92.10
2019-03-23T22:48:16.800Z,92.50
2019-03-23T22:50:46.654Z,92.20
2019-03-23T22:53:16.426Z,92.00
2019-03-23T22:55:46.331Z,92.20
2019-03-23T22:58:16.223Z,92.20
2019-03-23T23:00:47.934Z,92.20
2019-03-23T23:03:18.478Z,92.40
2019-03-23T23:05:48.351Z,92.20
2019-03-23T23:08:18.227Z,92.40
2019-03-23T23:10:48.125Z,92.30
2019-03-23T23:13:18.133Z,92.60
2019-03-23T23:15:47.986Z,92.60
2019-03-23T23:18:18.254Z,92.20
2019-03-23T23:20:48.069Z,92.00
2019-03-23T23:23:17.841Z,91.70
2019-03-23T23:25:47.662Z,91.80
2019-03-23T23:28:17.431Z,92.00
2019-03-23T23:30:47.214Z,92.00
2019-03-23T23:33:17.084Z,92.20
2019-03-23T23:35:46.932Z,92.30
2019-03-23T23:38:18.706Z,92.40
2019-03-23T23:40:48.504Z,92.80
2019-03-23T23:43:18.364Z,93.20
2019-03-23T23:45:48.162Z,93.40
2019-03-23T23:48:17.988Z,94.00
2019-03-23T23:50:47.767Z,94.20
2019-03-23T23:53:17.603Z,94.50
2019-03-23T23:55:47.490Z,94.90
2019-03-23T23:58:17.351Z,94.90
